createdAt,value
2018-05-27T00:00:34.439Z,21.13
2018-05-27T00:01:34.437Z,21.10
2018-05-27T00:02:34.421Z,21.09
2018-05-27T00:03:34.416Z,21.12
2018-05-27T00:04:34.543Z,21.03
2018-05-27T00:05:34.387Z,21.01
2018-05-27T00:06:34.370Z,20.95
2018-05-27T00:07:34.374Z,20.99
2018-05-27T00:08:34.344Z,21.04
2018-05-27T00:09:34.337Z,20.98
2018-05-27T00:10:34.328Z,20.97
2018-05-27T00:11:34.313Z,20.94
2018-05-27T00:12:34.309Z,20.89
2018-05-27T00:13:34.303Z,20.89
2018-05-27T00:14:34.281Z,20.89
2018-05-27T00:15:34.267Z,20.91
2018-05-27T00:16:34.261Z,20.82
2018-05-27T00:17:34.242Z,20.88
2018-05-27T00:18:34.231Z,20.88
2018-05-27T00:19:34.217Z,20.87
2018-05-27T00:20:34.211Z,20.85
2018-05-27T00:21:34.194Z,20.87
2018-05-27T00:22:34.186Z,20.87
2018-05-27T00:23:34.177Z,20.84
2018-05-27T00:24:34.160Z,20.87
2018-05-27T00:25:34.147Z,20.80
2018-05-27T00:26:34.141Z,20.91
2018-05-27T00:27:34.124Z,20.80
2018-05-27T00:28:34.169Z,20.87
2018-05-27T00:29:34.112Z,20.87
2018-05-27T00:30:34.090Z,20.85
2018-05-27T00:31:34.131Z,20.79
2018-05-27T00:32:34.071Z,20.76
2018-05-27T00:33:34.062Z,20.80
2018-05-27T00:34:34.044Z,20.66
2018-05-27T00:35:34.027Z,20.70
2018-05-27T00:36:34.020Z,20.58
2018-05-27T00:37:34.004Z,20.62
2018-05-27T00:38:33.997Z,20.58
2018-05-27T00:39:33.985Z,20.51
2018-05-27T00:40:33.970Z,20.54
2018-05-27T00:41:33.961Z,20.42
2018-05-27T00:42:33.951Z,20.47
2018-05-27T00:43:33.934Z,20.43
2018-05-27T00:44:33.947Z,20.51
2018-05-27T00:45:33.911Z,20.50
2018-05-27T00:46:33.911Z,20.50
2018-05-27T00:47:33.949Z,20.36
2018-05-27T00:48:33.881Z,20.33
2018-05-27T00:49:33.863Z,20.32
2018-05-27T00:50:33.857Z,20.31
2018-05-27T00:51:33.840Z,20.36
2018-05-27T00:52:33.831Z,20.35
2018-05-27T00:53:33.815Z,20.43
2018-05-27T00:54:33.808Z,20.38
2018-05-27T00:55:33.794Z,20.48
2018-05-27T00:56:33.780Z,20.39
2018-05-27T00:57:33.768Z,20.35
2018-05-27T00:58:33.766Z,20.35
2018-05-27T00:59:33.740Z,20.39
2018-05-27T01:00:33.880Z,20.35
2018-05-27T01:01:33.742Z,20.38
2018-05-27T01:02:33.704Z,20.36
2018-05-27T01:03:33.745Z,20.36
2018-05-27T01:04:33.687Z,20.36
2018-05-27T01:05:33.673Z,20.35
2018-05-27T01:06:33.657Z,20.35
2018-05-27T01:07:33.652Z,20.43
2018-05-27T01:08:33.738Z,20.35
2018-05-27T01:09:33.620Z,20.24
2018-05-27T01:10:33.610Z,20.24
2018-05-27T01:11:33.601Z,20.24
2018-05-27T01:12:33.585Z,20.21
2018-05-27T01:13:33.577Z,20.24
2018-05-27T01:14:33.559Z,20.14
2018-05-27T01:15:33.546Z,20.17
2018-05-27T01:16:33.533Z,20.06
2018-05-27T01:17:33.523Z,20.13
2018-05-27T01:18:33.509Z,20.16
2018-05-27T01:19:33.502Z,20.02
2018-05-27T01:20:33.490Z,20.08
2018-05-27T01:21:33.475Z,20.08
2018-05-27T01:22:33.462Z,20.08
2018-05-27T01:23:33.456Z,19.95
2018-05-27T01:24:33.639Z,19.98
2018-05-27T01:25:33.442Z,20.01
2018-05-27T01:26:33.418Z,19.95
2018-05-27T01:27:33.401Z,20.03
2018-05-27T01:28:33.402Z,19.94
2018-05-27T01:29:33.384Z,19.96
2018-05-27T01:30:33.365Z,20.05
2018-05-27T01:31:33.358Z,20.05
2018-05-27T01:32:33.343Z,20.10
2018-05-27T01:33:33.330Z,20.01
2018-05-27T01:34:33.318Z,20.06
2018-05-27T01:35:33.311Z,19.96
2018-05-27T01:36:33.292Z,19.94
2018-05-27T01:37:33.285Z,19.84
2018-05-27T01:38:33.273Z,19.81
2018-05-27T01:39:33.260Z,19.84
2018-05-27T01:40:33.355Z,19.87
2018-05-27T01:41:33.233Z,19.83
2018-05-27T01:42:33.218Z,19.68
2018-05-27T01:43:33.256Z,19.77
2018-05-27T01:44:33.199Z,19.66
2018-05-27T01:45:33.182Z,19.73
2018-05-27T01:46:33.169Z,19.65
2018-05-27T01:47:33.164Z,19.59
2018-05-27T01:48:33.150Z,19.51
2018-05-27T01:49:33.185Z,19.56
2018-05-27T01:50:33.127Z,19.51
2018-05-27T01:51:33.113Z,19.54
2018-05-27T01:52:33.097Z,19.59
2018-05-27T01:53:33.083Z,19.51
2018-05-27T01:54:33.067Z,19.51
2018-05-27T01:55:33.058Z,19.56
2018-05-27T01:56:33.149Z,19.62
2018-05-27T01:57:33.032Z,19.43
2018-05-27T01:58:33.016Z,19.43
2018-05-27T01:59:33.008Z,19.51
2018-05-27T02:00:32.990Z,19.54
2018-05-27T02:01:32.979Z,19.43
2018-05-27T02:02:32.967Z,19.41
2018-05-27T02:03:32.962Z,19.29
2018-05-27T02:04:32.946Z,19.37
2018-05-27T02:05:32.929Z,19.41
2018-05-27T02:06:32.918Z,19.40
2018-05-27T02:07:32.906Z,19.44
2018-05-27T02:08:32.890Z,19.51
2018-05-27T02:09:32.881Z,19.48
2018-05-27T02:10:32.866Z,19.46
2018-05-27T02:11:32.857Z,19.50
2018-05-27T02:12:32.839Z,19.56
2018-05-27T02:13:32.828Z,19.58
2018-05-27T02:14:32.829Z,19.56
2018-05-27T02:15:32.806Z,19.50
2018-05-27T02:16:32.789Z,19.46
2018-05-27T02:17:32.792Z,19.63
2018-05-27T02:18:32.773Z,19.55
2018-05-27T02:19:32.757Z,19.56
2018-05-27T02:20:32.792Z,19.55
2018-05-27T02:21:32.735Z,19.58
2018-05-27T02:22:32.717Z,19.66
2018-05-27T02:23:32.705Z,19.65
2018-05-27T02:24:32.689Z,19.61
2018-05-27T02:25:32.679Z,19.65
2018-05-27T02:26:32.666Z,19.62
2018-05-27T02:27:32.654Z,19.71
2018-05-27T02:28:32.637Z,19.54
2018-05-27T02:29:32.629Z,19.56
2018-05-27T02:30:32.618Z,19.44
2018-05-27T02:31:32.606Z,19.47
2018-05-27T02:32:32.589Z,19.44
2018-05-27T02:33:32.598Z,19.41
2018-05-27T02:34:32.572Z,19.48
2018-05-27T02:35:32.550Z,19.41
2018-05-27T02:36:32.593Z,19.44
2018-05-27T02:37:32.526Z,19.61
2018-05-27T02:38:32.510Z,19.56
2018-05-27T02:39:32.505Z,19.58
2018-05-27T02:40:32.487Z,19.61
2018-05-27T02:41:32.478Z,19.61
2018-05-27T02:42:32.461Z,19.63
2018-05-27T02:43:32.450Z,19.54
2018-05-27T02:44:32.440Z,19.44
2018-05-27T02:45:32.426Z,19.55
2018-05-27T02:46:32.416Z,19.54
2018-05-27T02:47:32.400Z,19.51
2018-05-27T02:48:32.396Z,19.46
2018-05-27T02:49:32.417Z,19.56
2018-05-27T02:50:32.360Z,19.44
2018-05-27T02:51:32.361Z,19.36
2018-05-27T02:52:32.337Z,19.26
2018-05-27T02:53:32.329Z,19.29
2018-05-27T02:54:32.318Z,19.08
2018-05-27T02:55:32.297Z,18.95
2018-05-27T02:56:32.286Z,18.80
2018-05-27T02:57:32.276Z,18.72
2018-05-27T02:58:32.261Z,18.63
2018-05-27T02:59:32.249Z,18.55
2018-05-27T03:00:32.236Z,18.60
2018-05-27T03:01:32.223Z,18.54
2018-05-27T03:02:32.212Z,18.57
2018-05-27T03:03:32.203Z,18.51
2018-05-27T03:04:32.187Z,18.57
2018-05-27T03:05:32.175Z,18.66
2018-05-27T03:06:32.164Z,18.57
2018-05-27T03:07:32.148Z,18.72
2018-05-27T03:08:32.140Z,18.73
2018-05-27T03:09:32.123Z,18.75
2018-05-27T03:10:32.238Z,18.78
2018-05-27T03:11:32.099Z,18.80
2018-05-27T03:12:32.084Z,18.73
2018-05-27T03:13:32.072Z,18.80
2018-05-27T03:14:32.062Z,18.76
2018-05-27T03:15:32.053Z,18.76
2018-05-27T03:16:32.037Z,18.84
2018-05-27T03:17:32.021Z,18.78
2018-05-27T03:18:32.011Z,18.82
2018-05-27T03:19:32.003Z,18.81
2018-05-27T03:20:31.981Z,18.90
2018-05-27T03:21:31.970Z,18.91
2018-05-27T03:22:31.960Z,18.88
2018-05-27T03:23:31.949Z,18.88
2018-05-27T03:24:31.931Z,18.90
2018-05-27T03:25:31.924Z,18.95
2018-05-27T03:26:31.905Z,18.90
2018-05-27T03:27:31.890Z,18.82
2018-05-27T03:28:31.879Z,18.88
2018-05-27T03:29:31.973Z,18.90
2018-05-27T03:30:31.852Z,18.87
2018-05-27T03:31:31.842Z,18.88
2018-05-27T03:32:31.878Z,18.91
2018-05-27T03:33:31.814Z,18.88
2018-05-27T03:34:31.801Z,18.92
2018-05-27T03:35:31.791Z,18.91
2018-05-27T03:36:31.775Z,18.90
2018-05-27T03:37:31.767Z,18.92
2018-05-27T03:38:31.751Z,18.94
2018-05-27T03:39:31.737Z,18.95
2018-05-27T03:40:31.727Z,18.92
2018-05-27T03:41:31.711Z,18.91
2018-05-27T03:42:31.699Z,18.90
2018-05-27T03:43:31.695Z,18.95
2018-05-27T03:44:31.681Z,18.91
2018-05-27T03:45:31.664Z,18.90
2018-05-27T03:46:31.648Z,18.98
2018-05-27T03:47:31.634Z,18.92
2018-05-27T03:48:31.675Z,18.88
2018-05-27T03:49:31.613Z,18.90
2018-05-27T03:50:31.601Z,18.87
2018-05-27T03:51:31.583Z,18.88
2018-05-27T03:52:31.577Z,18.88
2018-05-27T03:53:31.562Z,18.88
2018-05-27T03:54:31.546Z,18.91
2018-05-27T03:55:31.531Z,18.92
2018-05-27T03:56:31.522Z,19.02
2018-05-27T03:57:31.507Z,19.02
2018-05-27T03:58:31.490Z,18.99
2018-05-27T03:59:31.481Z,18.94
2018-05-27T04:00:31.471Z,19.00
2018-05-27T04:01:31.457Z,19.06
2018-05-27T04:02:31.445Z,19.07
2018-05-27T04:03:31.432Z,19.07
2018-05-27T04:04:31.416Z,19.00
2018-05-27T04:05:31.413Z,19.02
2018-05-27T04:06:31.391Z,18.88
2018-05-27T04:07:31.378Z,18.82
2018-05-27T04:08:31.372Z,18.75
2018-05-27T04:09:31.407Z,18.82
2018-05-27T04:10:31.339Z,18.76
2018-05-27T04:11:31.325Z,18.82
2018-05-27T04:12:31.311Z,18.90
2018-05-27T04:13:31.298Z,18.85
2018-05-27T04:14:31.285Z,18.82
2018-05-27T04:15:31.271Z,18.75
2018-05-27T04:16:31.260Z,18.78
2018-05-27T04:17:31.244Z,18.82
2018-05-27T04:18:31.237Z,18.70
2018-05-27T04:19:31.230Z,18.78
2018-05-27T04:20:31.204Z,18.75
2018-05-27T04:21:31.194Z,18.63
2018-05-27T04:22:31.182Z,18.65
2018-05-27T04:23:31.171Z,18.63
2018-05-27T04:24:31.159Z,18.63
2018-05-27T04:25:31.148Z,18.67
2018-05-27T04:26:31.131Z,18.67
2018-05-27T04:27:31.115Z,18.60
2018-05-27T04:28:31.243Z,18.65
2018-05-27T04:29:31.091Z,18.57
2018-05-27T04:30:31.076Z,18.62
2018-05-27T04:31:31.062Z,18.58
2018-05-27T04:32:31.048Z,18.58
2018-05-27T04:33:31.040Z,18.62
2018-05-27T04:34:31.031Z,18.60
2018-05-27T04:35:31.014Z,18.58
2018-05-27T04:36:31.042Z,18.42
2018-05-27T04:37:30.986Z,18.45
2018-05-27T04:38:30.974Z,18.52
2018-05-27T04:39:30.960Z,18.50
2018-05-27T04:40:30.947Z,18.58
2018-05-27T04:41:30.937Z,18.62
2018-05-27T04:42:30.919Z,18.51
2018-05-27T04:43:30.909Z,18.50
2018-05-27T04:44:30.944Z,18.44
2018-05-27T04:45:30.898Z,18.50
2018-05-27T04:46:30.866Z,18.55
2018-05-27T04:47:30.858Z,18.60
2018-05-27T04:48:30.838Z,18.67
2018-05-27T04:49:30.843Z,18.65
2018-05-27T04:50:30.815Z,18.73
2018-05-27T04:51:30.802Z,18.66
2018-05-27T04:52:30.838Z,18.66
2018-05-27T04:53:30.776Z,18.67
2018-05-27T04:54:30.762Z,18.66
2018-05-27T04:55:30.747Z,18.62
2018-05-27T04:56:30.733Z,18.60
2018-05-27T04:57:30.720Z,18.65
2018-05-27T04:58:30.710Z,18.55
2018-05-27T04:59:30.701Z,18.63
2018-05-27T05:00:30.681Z,18.70
2018-05-27T05:01:30.669Z,18.73
2018-05-27T05:02:30.656Z,18.72
2018-05-27T05:03:30.645Z,18.70
2018-05-27T05:04:30.627Z,18.73
2018-05-27T05:05:30.624Z,18.76
2018-05-27T05:06:30.600Z,18.80
2018-05-27T05:07:30.588Z,18.76
2018-05-27T05:08:30.634Z,18.87
2018-05-27T05:09:30.596Z,18.82
2018-05-27T05:10:30.550Z,18.91
2018-05-27T05:11:30.536Z,18.91
2018-05-27T05:12:30.523Z,18.98
2018-05-27T05:13:30.508Z,19.11
2018-05-27T05:14:30.491Z,19.14
2018-05-27T05:15:30.480Z,19.02
2018-05-27T05:16:30.476Z,19.07
2018-05-27T05:17:30.461Z,19.02
2018-05-27T05:18:30.442Z,18.95
2018-05-27T05:19:30.427Z,19.10
2018-05-27T05:20:30.420Z,19.06
2018-05-27T05:21:30.909Z,19.07
2018-05-27T05:22:30.387Z,19.19
2018-05-27T05:23:30.391Z,19.22
2018-05-27T05:24:30.384Z,19.22
2018-05-27T05:25:30.352Z,19.19
2018-05-27T05:26:30.335Z,19.31
2018-05-27T05:27:30.325Z,19.25
2018-05-27T05:28:30.318Z,19.33
2018-05-27T05:29:30.298Z,19.40
2018-05-27T05:30:30.290Z,19.41
2018-05-27T05:31:30.273Z,19.48
2018-05-27T05:32:30.259Z,19.44
2018-05-27T05:33:30.254Z,19.54
2018-05-27T05:34:30.235Z,19.46
2018-05-27T05:35:30.216Z,19.61
2018-05-27T05:36:30.202Z,19.61
2018-05-27T05:37:30.191Z,19.46
2018-05-27T05:38:30.177Z,19.58
2018-05-27T05:39:30.167Z,19.54
2018-05-27T05:40:30.151Z,19.58
2018-05-27T05:41:30.137Z,19.62
2018-05-27T05:42:30.129Z,19.54
2018-05-27T05:43:30.113Z,19.54
2018-05-27T05:44:30.098Z,19.54
2018-05-27T05:45:30.099Z,19.50
2018-05-27T05:46:30.073Z,19.61
2018-05-27T05:47:30.061Z,19.56
2018-05-27T05:48:30.050Z,19.56
2018-05-27T05:49:30.034Z,19.59
2018-05-27T05:50:30.021Z,19.54
2018-05-27T05:51:30.012Z,19.56
2018-05-27T05:52:29.996Z,19.63
2018-05-27T05:53:29.981Z,19.62
2018-05-27T05:54:30.018Z,19.71
2018-05-27T05:55:29.962Z,19.71
2018-05-27T05:56:29.948Z,19.80
2018-05-27T05:57:29.932Z,19.77
2018-05-27T05:58:29.921Z,19.73
2018-05-27T05:59:29.907Z,19.73
2018-05-27T06:00:29.896Z,19.71
2018-05-27T06:01:29.881Z,19.65
2018-05-27T06:02:29.869Z,19.80
2018-05-27T06:03:29.866Z,19.80
2018-05-27T06:04:29.856Z,19.81
2018-05-27T06:05:29.829Z,19.87
2018-05-27T06:06:29.812Z,19.95
2018-05-27T06:07:29.806Z,19.95
2018-05-27T06:08:29.794Z,19.98
2018-05-27T06:09:29.775Z,20.02
2018-05-27T06:10:29.762Z,19.98
2018-05-27T06:11:29.751Z,19.99
2018-05-27T06:12:29.736Z,20.10
2018-05-27T06:13:29.759Z,19.99
2018-05-27T06:14:29.711Z,20.18
2018-05-27T06:15:29.700Z,20.11
2018-05-27T06:16:29.692Z,20.23
2018-05-27T06:17:29.672Z,20.35
2018-05-27T06:18:29.663Z,20.33
2018-05-27T06:19:29.646Z,20.41
2018-05-27T06:20:29.682Z,20.43
2018-05-27T06:21:29.624Z,20.47
2018-05-27T06:22:29.612Z,20.43
2018-05-27T06:23:29.593Z,20.38
2018-05-27T06:24:29.584Z,20.33
2018-05-27T06:25:29.569Z,20.36
2018-05-27T06:26:29.562Z,20.33
2018-05-27T06:27:29.544Z,20.42
2018-05-27T06:28:29.531Z,20.50
2018-05-27T06:29:29.521Z,20.57
2018-05-27T06:30:29.502Z,20.47
2018-05-27T06:31:29.494Z,20.62
2018-05-27T06:32:29.477Z,20.62
2018-05-27T06:33:29.466Z,20.73
2018-05-27T06:34:29.451Z,20.74
2018-05-27T06:35:29.445Z,20.77
2018-05-27T06:36:29.424Z,20.84
2018-05-27T06:37:29.413Z,20.88
2018-05-27T06:38:29.404Z,20.94
2018-05-27T06:39:29.386Z,20.87
2018-05-27T06:40:29.381Z,20.92
2018-05-27T06:41:29.516Z,20.98
2018-05-27T06:42:29.352Z,20.97
2018-05-27T06:43:29.337Z,21.03
2018-05-27T06:44:29.322Z,21.01
2018-05-27T06:45:29.312Z,21.07
2018-05-27T06:46:29.307Z,21.12
2018-05-27T06:47:29.292Z,21.12
2018-05-27T06:48:29.288Z,21.19
2018-05-27T06:49:29.263Z,21.19
2018-05-27T06:50:29.247Z,21.22
2018-05-27T06:51:29.239Z,21.35
2018-05-27T06:52:29.220Z,21.38
2018-05-27T06:53:29.208Z,21.35
2018-05-27T06:54:29.195Z,21.49
2018-05-27T06:55:29.188Z,21.49
2018-05-27T06:56:29.171Z,21.53
2018-05-27T06:57:29.163Z,21.52
2018-05-27T06:58:29.149Z,21.52
2018-05-27T06:59:29.132Z,21.62
2018-05-27T07:00:29.148Z,21.61
2018-05-27T07:01:29.117Z,21.69
2018-05-27T07:02:29.099Z,21.67
2018-05-27T07:03:29.104Z,21.84
2018-05-27T07:04:29.110Z,21.72
2018-05-27T07:05:29.062Z,21.71
2018-05-27T07:06:29.049Z,21.86
2018-05-27T07:07:29.038Z,21.90
2018-05-27T07:08:29.032Z,21.84
2018-05-27T07:09:29.012Z,21.96
2018-05-27T07:10:29.012Z,21.94
2018-05-27T07:11:28.994Z,21.83
2018-05-27T07:12:28.974Z,21.84
2018-05-27T07:13:28.959Z,21.84
2018-05-27T07:14:28.968Z,21.98
2018-05-27T07:15:28.934Z,22.02
2018-05-27T07:16:28.921Z,22.07
2018-05-27T07:17:28.911Z,22.10
2018-05-27T07:18:28.896Z,22.15
2018-05-27T07:19:28.889Z,22.20
2018-05-27T07:20:28.871Z,22.30
2018-05-27T07:21:28.861Z,22.31
2018-05-27T07:22:28.847Z,22.40
2018-05-27T07:23:28.848Z,22.36
2018-05-27T07:24:28.828Z,22.36
2018-05-27T07:25:28.811Z,22.39
2018-05-27T07:26:28.801Z,22.45
2018-05-27T07:27:28.792Z,22.37
2018-05-27T07:28:28.778Z,22.39
2018-05-27T07:29:28.771Z,22.51
2018-05-27T07:30:28.755Z,22.62
2018-05-27T07:31:28.740Z,22.70
2018-05-27T07:32:28.730Z,22.73
2018-05-27T07:33:28.712Z,22.75
2018-05-27T07:34:28.760Z,22.73
2018-05-27T07:35:28.689Z,22.82
2018-05-27T07:36:28.682Z,22.85
2018-05-27T07:37:28.672Z,22.94
2018-05-27T07:38:28.657Z,23.02
2018-05-27T07:39:28.642Z,23.00
2018-05-27T07:40:28.631Z,23.17
2018-05-27T07:41:28.618Z,23.13
2018-05-27T07:42:28.612Z,23.22
2018-05-27T07:43:28.598Z,23.23
2018-05-27T07:44:28.606Z,23.23
2018-05-27T07:45:28.581Z,23.38
2018-05-27T07:46:28.561Z,23.28
2018-05-27T07:47:28.548Z,23.43
2018-05-27T07:48:28.541Z,23.46
2018-05-27T07:49:28.535Z,23.47
2018-05-27T07:50:28.515Z,23.38
2018-05-27T07:51:28.501Z,23.48
2018-05-27T07:52:28.510Z,23.50
2018-05-27T07:53:28.480Z,23.60
2018-05-27T07:54:28.470Z,23.58
2018-05-27T07:55:28.459Z,23.61
2018-05-27T07:56:28.447Z,23.65
2018-05-27T07:57:28.435Z,23.70
2018-05-27T07:58:28.559Z,23.79
2018-05-27T07:59:28.414Z,23.76
2018-05-27T08:00:28.400Z,23.76
2018-05-27T08:01:28.388Z,23.87
2018-05-27T08:02:28.385Z,23.90
2018-05-27T08:03:28.377Z,24.00
2018-05-27T08:04:28.360Z,23.87
2018-05-27T08:05:28.343Z,23.88
2018-05-27T08:06:28.331Z,23.95
2018-05-27T08:07:28.321Z,24.00
2018-05-27T08:08:28.309Z,24.08
2018-05-27T08:09:28.451Z,24.13
2018-05-27T08:10:28.287Z,24.24
2018-05-27T08:11:28.286Z,24.40
2018-05-27T08:12:28.322Z,24.28
2018-05-27T08:13:28.254Z,24.25
2018-05-27T08:14:28.240Z,24.02
2018-05-27T08:15:28.231Z,23.98
2018-05-27T08:16:28.231Z,23.90
2018-05-27T08:17:28.217Z,23.93
2018-05-27T08:18:28.204Z,23.95
2018-05-27T08:19:28.195Z,23.88
2018-05-27T08:20:28.176Z,23.90
2018-05-27T08:21:28.168Z,23.97
2018-05-27T08:22:28.152Z,23.98
2018-05-27T08:23:28.160Z,24.00
2018-05-27T08:24:28.136Z,24.22
2018-05-27T08:25:28.129Z,24.35
2018-05-27T08:26:28.108Z,24.39
2018-05-27T08:27:28.098Z,24.40
2018-05-27T08:28:28.094Z,24.50
2018-05-27T08:29:28.087Z,24.61
2018-05-27T08:30:28.077Z,24.65
2018-05-27T08:31:28.058Z,24.73
2018-05-27T08:32:28.041Z,24.64
2018-05-27T08:33:28.098Z,24.62
2018-05-27T08:34:28.022Z,24.64
2018-05-27T08:35:28.023Z,24.62
2018-05-27T08:36:28.002Z,24.77
2018-05-27T08:37:28.004Z,24.81
2018-05-27T08:38:27.981Z,24.84
2018-05-27T08:39:27.972Z,24.53
2018-05-27T08:40:27.963Z,24.76
2018-05-27T08:41:27.946Z,24.81
2018-05-27T08:42:27.936Z,24.81
2018-05-27T08:43:27.970Z,24.91
2018-05-27T08:44:27.913Z,24.99
2018-05-27T08:45:27.910Z,25.10
2018-05-27T08:46:27.890Z,25.05
2018-05-27T08:47:27.906Z,24.96
2018-05-27T08:48:27.871Z,24.77
2018-05-27T08:49:27.862Z,24.85
2018-05-27T08:50:27.854Z,24.98
2018-05-27T08:51:27.859Z,25.20
2018-05-27T08:52:27.833Z,25.24
2018-05-27T08:53:27.882Z,25.25
2018-05-27T08:54:27.812Z,25.23
2018-05-27T08:55:27.799Z,25.13
2018-05-27T08:56:27.797Z,25.15
2018-05-27T08:57:27.775Z,25.06
2018-05-27T08:58:27.765Z,25.10
2018-05-27T08:59:27.758Z,25.06
2018-05-27T09:00:27.745Z,25.02
2018-05-27T09:01:27.745Z,25.20
2018-05-27T09:02:27.727Z,25.25
2018-05-27T09:03:27.722Z,25.32
2018-05-27T09:04:27.701Z,25.33
2018-05-27T09:05:27.694Z,25.36
2018-05-27T09:06:27.681Z,25.46
2018-05-27T09:07:27.675Z,25.54
2018-05-27T09:08:27.662Z,25.65
2018-05-27T09:09:27.652Z,25.72
2018-05-27T09:10:27.639Z,25.75
2018-05-27T09:11:27.628Z,25.69
2018-05-27T09:12:27.621Z,25.80
2018-05-27T09:13:27.608Z,25.87
2018-05-27T09:14:27.609Z,25.88
2018-05-27T09:15:27.592Z,25.91
2018-05-27T09:16:27.589Z,25.61
2018-05-27T09:17:27.578Z,25.58
2018-05-27T09:18:27.566Z,25.55
2018-05-27T09:19:27.550Z,25.35
2018-05-27T09:20:27.536Z,25.38
2018-05-27T09:21:27.535Z,25.32
2018-05-27T09:22:27.524Z,25.24
2018-05-27T09:23:27.513Z,25.15
2018-05-27T09:24:27.511Z,25.21
2018-05-27T09:25:27.495Z,25.21
2018-05-27T09:26:27.482Z,25.40
2018-05-27T09:27:27.467Z,25.54
2018-05-27T09:28:27.454Z,25.65
2018-05-27T09:29:27.446Z,25.88
2018-05-27T09:30:27.434Z,26.06
2018-05-27T09:31:27.427Z,26.10
2018-05-27T09:32:27.419Z,26.09
2018-05-27T09:33:27.413Z,26.23
2018-05-27T09:34:27.394Z,26.25
2018-05-27T09:35:27.394Z,26.29
2018-05-27T09:36:27.375Z,26.17
2018-05-27T09:37:27.372Z,26.10
2018-05-27T09:38:27.357Z,26.10
2018-05-27T09:39:27.426Z,25.91
2018-05-27T09:40:27.338Z,25.90
2018-05-27T09:41:27.331Z,25.83
2018-05-27T09:42:27.315Z,25.90
2018-05-27T09:43:27.308Z,25.85
2018-05-27T09:44:27.305Z,25.87
2018-05-27T09:45:27.337Z,25.92
2018-05-27T09:46:27.280Z,26.06
2018-05-27T09:47:27.269Z,25.99
2018-05-27T09:48:27.265Z,26.09
2018-05-27T09:49:27.252Z,25.98
2018-05-27T09:50:27.237Z,25.97
2018-05-27T09:51:27.277Z,26.06
2018-05-27T09:52:27.217Z,25.91
2018-05-27T09:53:27.221Z,26.07
2018-05-27T09:54:27.198Z,26.07
2018-05-27T09:55:27.241Z,26.23
2018-05-27T09:56:27.182Z,26.28
2018-05-27T09:57:27.168Z,26.28
2018-05-27T09:58:27.223Z,26.35
2018-05-27T09:59:27.151Z,26.37
2018-05-27T10:00:27.141Z,26.51
2018-05-27T10:01:27.139Z,26.48
2018-05-27T10:02:27.122Z,26.30
2018-05-27T10:03:27.110Z,26.18
2018-05-27T10:04:27.116Z,25.97
2018-05-27T10:05:27.094Z,25.91
2018-05-27T10:06:27.086Z,25.90
2018-05-27T10:07:27.071Z,25.91
2018-05-27T10:08:27.061Z,26.20
2018-05-27T10:09:27.056Z,26.29
2018-05-27T10:10:27.057Z,26.26
2018-05-27T10:11:27.152Z,26.28
2018-05-27T10:12:27.043Z,26.23
2018-05-27T10:13:27.018Z,26.36
2018-05-27T10:14:27.016Z,26.51
2018-05-27T10:15:27.011Z,26.58
2018-05-27T10:16:27.106Z,26.57
2018-05-27T10:17:26.978Z,26.81
2018-05-27T10:18:26.978Z,26.89
2018-05-27T10:19:27.021Z,26.85
2018-05-27T10:20:26.952Z,26.77
2018-05-27T10:21:26.937Z,26.66
2018-05-27T10:22:26.932Z,26.57
2018-05-27T10:23:26.930Z,26.66
2018-05-27T10:24:26.910Z,26.66
2018-05-27T10:25:26.902Z,26.75
2018-05-27T10:26:26.894Z,26.67
2018-05-27T10:27:26.882Z,26.77
2018-05-27T10:28:26.880Z,26.88
2018-05-27T10:29:26.861Z,26.88
2018-05-27T10:30:26.855Z,27.02
2018-05-27T10:31:26.848Z,26.94
2018-05-27T10:32:26.940Z,26.99
2018-05-27T10:33:26.827Z,26.88
2018-05-27T10:34:26.820Z,26.92
2018-05-27T10:35:26.805Z,26.77
2018-05-27T10:36:26.801Z,26.81
2018-05-27T10:37:26.796Z,26.77
2018-05-27T10:38:26.787Z,26.63
2018-05-27T10:39:26.767Z,26.58
2018-05-27T10:40:26.756Z,26.72
2018-05-27T10:41:26.754Z,26.85
2018-05-27T10:42:26.740Z,26.94
2018-05-27T10:43:26.731Z,27.02
2018-05-27T10:44:26.727Z,27.09
2018-05-27T10:45:26.714Z,27.06
2018-05-27T10:46:26.706Z,27.22
2018-05-27T10:47:26.753Z,27.31
2018-05-27T10:48:26.686Z,27.31
2018-05-27T10:49:26.675Z,27.34
2018-05-27T10:50:26.667Z,27.25
2018-05-27T10:51:26.665Z,27.32
2018-05-27T10:52:26.661Z,27.47
2018-05-27T10:53:26.641Z,27.47
2018-05-27T10:54:26.625Z,27.49
2018-05-27T10:55:26.624Z,27.70
2018-05-27T10:56:26.620Z,27.66
2018-05-27T10:57:26.603Z,27.77
2018-05-27T10:58:26.597Z,27.60
2018-05-27T10:59:26.583Z,27.59
2018-05-27T11:00:26.580Z,27.44
2018-05-27T11:01:26.585Z,27.49
2018-05-27T11:02:26.567Z,27.60
2018-05-27T11:03:26.560Z,27.63
2018-05-27T11:04:26.593Z,27.66
2018-05-27T11:05:26.532Z,27.66
2018-05-27T11:06:26.520Z,27.67
2018-05-27T11:07:26.515Z,27.62
2018-05-27T11:08:26.501Z,27.51
2018-05-27T11:09:26.497Z,27.32
2018-05-27T11:10:26.488Z,27.28
2018-05-27T11:11:26.482Z,27.34
2018-05-27T11:12:26.470Z,27.36
2018-05-27T11:13:26.471Z,27.43
2018-05-27T11:14:26.449Z,27.62
2018-05-27T11:15:26.444Z,27.74
2018-05-27T11:16:26.432Z,27.82
2018-05-27T11:17:26.426Z,27.96
2018-05-27T11:18:26.417Z,27.97
2018-05-27T11:19:26.401Z,28.12
2018-05-27T11:20:26.391Z,27.90
2018-05-27T11:21:26.391Z,27.93
2018-05-27T11:22:26.421Z,27.96
2018-05-27T11:23:26.368Z,27.94
2018-05-27T11:24:26.360Z,27.92
2018-05-27T11:25:26.353Z,27.93
2018-05-27T11:26:26.338Z,27.96
2018-05-27T11:27:26.334Z,27.94
2018-05-27T11:28:26.327Z,27.92
2018-05-27T11:29:26.314Z,28.09
2018-05-27T11:30:26.312Z,28.09
2018-05-27T11:31:26.300Z,28.00
2018-05-27T11:32:26.288Z,28.04
2018-05-27T11:33:26.278Z,28.06
2018-05-27T11:34:26.269Z,28.04
2018-05-27T11:35:26.259Z,27.97
2018-05-27T11:36:26.257Z,27.96
2018-05-27T11:37:26.248Z,27.97
2018-05-27T11:38:26.236Z,28.00
2018-05-27T11:39:26.228Z,27.92
2018-05-27T11:40:26.218Z,27.96
2018-05-27T11:41:26.206Z,27.88
2018-05-27T11:42:26.243Z,27.88
2018-05-27T11:43:26.193Z,27.84
2018-05-27T11:44:26.192Z,27.81
2018-05-27T11:45:26.177Z,27.82
2018-05-27T11:46:26.169Z,27.79
2018-05-27T11:47:26.161Z,27.82
2018-05-27T11:48:26.154Z,27.84
2018-05-27T11:49:26.143Z,27.87
2018-05-27T11:50:26.131Z,27.88
2018-05-27T11:51:26.121Z,27.88
2018-05-27T11:52:26.114Z,27.72
2018-05-27T11:53:26.104Z,27.77
2018-05-27T11:54:26.214Z,27.79
2018-05-27T11:55:26.091Z,27.79
2018-05-27T11:56:26.081Z,27.84
2018-05-27T11:57:26.069Z,27.93
2018-05-27T11:58:26.059Z,28.03
2018-05-27T11:59:26.073Z,28.09
2018-05-27T12:00:26.060Z,28.07
2018-05-27T12:01:26.045Z,28.04
2018-05-27T12:02:26.023Z,28.04
2018-05-27T12:03:26.034Z,28.09
2018-05-27T12:04:26.012Z,28.17
2018-05-27T12:05:26.011Z,28.15
2018-05-27T12:06:26.002Z,28.27
2018-05-27T12:07:25.979Z,28.24
2018-05-27T12:08:25.983Z,28.21
2018-05-27T12:09:26.136Z,28.09
2018-05-27T12:10:25.963Z,28.06
2018-05-27T12:11:25.946Z,28.06
2018-05-27T12:12:26.066Z,27.94
2018-05-27T12:13:25.941Z,27.90
2018-05-27T12:14:25.922Z,27.87
2018-05-27T12:15:25.918Z,27.94
2018-05-27T12:16:25.901Z,28.02
2018-05-27T12:17:25.894Z,27.97
2018-05-27T12:18:25.884Z,27.97
2018-05-27T12:19:25.877Z,27.79
2018-05-27T12:20:25.868Z,27.82
2018-05-27T12:21:25.861Z,27.77
2018-05-27T12:22:25.852Z,27.78
2018-05-27T12:23:25.846Z,27.77
2018-05-27T12:24:25.831Z,27.79
2018-05-27T12:25:25.821Z,27.75
2018-05-27T12:26:25.813Z,27.78
2018-05-27T12:27:25.804Z,27.87
2018-05-27T12:28:25.855Z,28.03
2018-05-27T12:29:25.789Z,28.12
2018-05-27T12:30:25.781Z,28.27
2018-05-27T12:31:25.770Z,28.37
2018-05-27T12:32:25.765Z,28.37
2018-05-27T12:33:25.749Z,28.25
2018-05-27T12:34:25.741Z,28.21
2018-05-27T12:35:25.741Z,28.19
2018-05-27T12:36:25.724Z,28.24
2018-05-27T12:37:25.725Z,28.27
2018-05-27T12:38:25.710Z,28.21
2018-05-27T12:39:25.704Z,28.14
2018-05-27T12:40:25.694Z,28.11
2018-05-27T12:41:25.680Z,27.96
2018-05-27T12:42:25.674Z,27.97
2018-05-27T12:43:25.673Z,27.87
2018-05-27T12:44:25.806Z,27.82
2018-05-27T12:45:25.650Z,27.84
2018-05-27T12:46:25.643Z,27.81
2018-05-27T12:47:25.631Z,27.66
2018-05-27T12:48:25.622Z,27.77
2018-05-27T12:49:25.611Z,27.78
2018-05-27T12:50:25.608Z,27.75
2018-05-27T12:51:25.593Z,27.81
2018-05-27T12:52:25.585Z,27.88